Time;durP1;ratioP1;P1;durP2;ratioP2;P2;SDS_P1;SDS_P2;PMS_P1;PMS_P2;Temp;Humidity;BMP_temperature;BMP_pressure;BME280_temperature;BME280_humidity;BME280_pressure;Samples;Min_cycle;Max_cycle;Signal;HPM_P1;HPM_P2
2022/02/13 00:00:48;;;;;;;12.25;9.68;;;;;;;;;;5024195;28;20302;-81
2022/02/13 00:03:14;;;;;;;12.00;9.73;;;;;;;;;;5026527;28;20186;-82
2022/02/13 00:05:40;;;;;;;12.45;9.40;;;;;;;;;;5026280;28;20202;-83
2022/02/13 00:08:06;;;;;;;19.33;10.85;;;;;;;;;;5029638;28;20221;-82
2022/02/13 00:10:32;;;;;;;15.60;10.30;;;;;;;;;;5021874;28;20225;-82
2022/02/13 00:12:58;;;;;;;13.82;9.70;;;;;;;;;;5021085;28;20178;-82
2022/02/13 00:15:24;;;;;;;17.77;9.18;;;;;;;;;;5033027;28;20214;-82
2022/02/13 00:17:50;;;;;;;15.07;9.40;;;;;;;;;;5036571;28;20218;-82
2022/02/13 00:20:16;;;;;;;11.73;7.85;;;;;;;;;;5017760;28;20179;-82
2022/02/13 00:22:42;;;;;;;10.73;8.88;;;;;;;;;;5017675;28;20191;-81
2022/02/13 00:25:08;;;;;;;8.43;7.32;;;;;;;;;;5021143;28;20208;-82
2022/02/13 00:27:36;;;;;;;7.85;6.70;;;;;;;;;;5034308;28;20194;-82
2022/02/13 00:30:02;;;;;;;14.38;9.90;;;;;;;;;;5036232;28;20225;-81
2022/02/13 00:32:28;;;;;;;12.52;8.57;;;;;;;;;;5021556;28;20182;-82
2022/02/13 00:34:54;;;;;;;12.73;8.82;;;;;;;;;;5042156;28;20179;-82
2022/02/13 00:37:20;;;;;;;12.93;8.40;;;;;;;;;;5028095;28;20190;-82
2022/02/13 00:39:46;;;;;;;10.07;8.13;;;;;;;;;;5019033;28;20238;-82
2022/02/13 00:42:12;;;;;;;12.68;8.88;;;;;;;;;;5011388;28;20182;-82
2022/02/13 00:44:38;;;;;;;11.95;7.47;;;;;;;;;;5021963;28;20210;-82
2022/02/13 00:47:04;;;;;;;10.65;8.55;;;;;;;;;;5036224;28;20172;-82
2022/02/13 00:49:30;;;;;;;11.27;8.23;;;;;;;;;;5011603;28;20205;-82
2022/02/13 00:51:56;;;;;;;11.05;8.25;;;;;;;;;;5022248;28;20187;-82
2022/02/13 00:54:22;;;;;;;12.50;8.13;;;;;;;;;;5036289;28;20194;-82
2022/02/13 00:56:48;;;;;;;11.27;8.25;;;;;;;;;;5044845;28;20190;-82
2022/02/13 00:59:15;;;;;;;14.18;7.97;;;;;;;;;;5031460;28;20182;-82
2022/02/13 01:01:41;;;;;;;12.90;8.10;;;;;;;;;;5011601;28;20187;-83
2022/02/13 01:04:07;;;;;;;11.75;8.52;;;;;;;;;;5031814;28;20188;-82
2022/02/13 01:06:33;;;;;;;8.57;6.95;;;;;;;;;;5020137;28;20202;-82
2022/02/13 01:08:59;;;;;;;10.50;7.60;;;;;;;;;;5036557;28;20208;-82
2022/02/13 01:11:25;;;;;;;10.85;8.23;;;;;;;;;;5035634;28;20194;-82
2022/02/13 01:13:51;;;;;;;11.48;7.25;;;;;;;;;;5048118;28;20197;-82
2022/02/13 01:16:18;;;;;;;12.45;7.97;;;;;;;;;;5024539;28;20280;-82
2022/02/13 01:18:44;;;;;;;11.63;7.82;;;;;;;;;;5035393;28;20611;-82
2022/02/13 01:21:13;;;;;;;11.85;8.25;;;;;;;;;;5034613;28;20626;-82
2022/02/13 01:23:42;;;;;;;9.40;7.22;;;;;;;;;;5007331;28;20643;-82
2022/02/13 01:26:09;;;;;;;10.93;7.25;;;;;;;;;;5023545;28;20210;-82
2022/02/13 01:28:35;;;;;;;9.18;7.68;;;;;;;;;;5030040;28;20201;-82
2022/02/13 01:31:02;;;;;;;8.18;7.05;;;;;;;;;;5031780;28;20191;-82
2022/02/13 01:33:29;;;;;;;7.70;6.97;;;;;;;;;;5026755;28;20264;-82
2022/02/13 01:35:55;;;;;;;8.25;6.20;;;;;;;;;;5022272;28;20201;-81
2022/02/13 01:38:21;;;;;;;9.90;6.85;;;;;;;;;;5006906;28;20226;-82
2022/02/13 01:40:47;;;;;;;8.98;7.03;;;;;;;;;;5043318;28;20210;-82
2022/02/13 01:43:13;;;;;;;10.40;6.68;;;;;;;;;;5021754;28;20179;-82
2022/02/13 01:45:39;;;;;;;7.10;6.35;;;;;;;;;;5032889;28;20221;-82
2022/02/13 01:48:08;;;;;;;7.60;5.75;;;;;;;;;;5028911;28;20268;-82
2022/02/13 01:50:34;;;;;;;10.30;6.38;;;;;;;;;;5037221;28;20263;-82
2022/02/13 01:53:00;;;;;;;7.07;6.20;;;;;;;;;;5042501;28;20170;-82
2022/02/13 01:55:26;;;;;;;9.02;7.05;;;;;;;;;;5017468;28;20781;-82
2022/02/13 01:57:52;;;;;;;8.00;6.95;;;;;;;;;;5024596;28;20287;-82
2022/02/13 02:00:18;;;;;;;8.27;5.90;;;;;;;;;;5022267;28;20549;-82
2022/02/13 02:02:44;;;;;;;10.15;7.15;;;;;;;;;;5009676;28;20194;-82
2022/02/13 02:05:11;;;;;;;9.15;6.30;;;;;;;;;;5023407;28;20207;-82
2022/02/13 02:07:37;;;;;;;9.77;6.72;;;;;;;;;;5033641;28;20179;-82
2022/02/13 02:10:03;;;;;;;7.82;6.57;;;;;;;;;;5015382;28;20179;-82
2022/02/13 02:12:29;;;;;;;7.03;5.85;;;;;;;;;;5029475;28;20206;-82
2022/02/13 02:14:55;;;;;;;7.32;6.55;;;;;;;;;;5024841;28;20190;-82
2022/02/13 02:17:21;;;;;;;9.25;5.95;;;;;;;;;;5024447;28;20278;-82
2022/02/13 02:19:47;;;;;;;6.60;5.70;;;;;;;;;;5026285;28;20178;-82
2022/02/13 02:22:15;;;;;;;7.72;6.90;;;;;;;;;;5033305;28;20194;-82
2022/02/13 02:24:41;;;;;;;13.15;7.93;;;;;;;;;;5027930;28;20203;-82
2022/02/13 02:27:08;;;;;;;8.77;5.95;;;;;;;;;;5013630;28;20174;-82
2022/02/13 02:29:34;;;;;;;7.22;6.20;;;;;;;;;;5029542;28;20723;-82
2022/02/13 02:32:00;;;;;;;10.20;6.13;;;;;;;;;;5027145;28;20179;-81
2022/02/13 02:34:27;;;;;;;8.82;5.80;;;;;;;;;;5039589;28;20437;-83
2022/02/13 02:36:53;;;;;;;7.30;5.50;;;;;;;;;;5026816;28;20205;-82
2022/02/13 02:39:19;;;;;;;6.97;6.30;;;;;;;;;;5027532;28;20228;-83
2022/02/13 02:41:45;;;;;;;6.90;6.00;;;;;;;;;;5026292;28;20209;-82
2022/02/13 02:44:11;;;;;;;8.45;6.45;;;;;;;;;;5025026;28;20217;-82
2022/02/13 02:46:37;;;;;;;8.48;6.20;;;;;;;;;;5013304;28;20187;-82
2022/02/13 02:49:03;;;;;;;6.80;5.78;;;;;;;;;;5022610;28;20218;-82
2022/02/13 02:51:29;;;;;;;10.15;6.10;;;;;;;;;;5018912;28;20205;-82
2022/02/13 02:53:55;;;;;;;10.35;7.05;;;;;;;;;;5039903;28;20183;-83
2022/02/13 02:56:21;;;;;;;8.65;5.15;;;;;;;;;;5029762;28;20250;-82
2022/02/13 02:58:47;;;;;;;7.07;6.15;;;;;;;;;;5013505;28;20210;-83
2022/02/13 03:01:13;;;;;;;8.30;4.93;;;;;;;;;;5027761;28;20210;-82
2022/02/13 03:03:39;;;;;;;6.95;5.63;;;;;;;;;;5030993;28;20199;-83
2022/02/13 03:06:05;;;;;;;11.02;6.60;;;;;;;;;;5037787;28;20209;-83
2022/02/13 03:08:31;;;;;;;7.85;6.15;;;;;;;;;;5042062;28;20193;-82
2022/02/13 03:10:57;;;;;;;8.07;5.80;;;;;;;;;;5044440;28;20179;-83
2022/02/13 03:13:23;;;;;;;8.02;5.70;;;;;;;;;;5024940;28;20194;-83
2022/02/13 03:15:50;;;;;;;8.27;6.00;;;;;;;;;;5027644;28;20202;-82
2022/02/13 03:18:19;;;;;;;6.35;4.88;;;;;;;;;;5024598;28;20222;-83
2022/02/13 03:20:49;;;;;;;7.57;5.57;;;;;;;;;;5056781;28;20217;-82
2022/02/13 03:23:16;;;;;;;7.22;5.55;;;;;;;;;;5067779;28;20185;-83
2022/02/13 03:25:42;;;;;;;11.77;5.95;;;;;;;;;;5020666;28;20206;-83
2022/02/13 03:28:09;;;;;;;7.45;5.07;;;;;;;;;;5013147;28;20193;-83
2022/02/13 03:30:35;;;;;;;7.88;5.80;;;;;;;;;;5028646;28;20182;-83
2022/02/13 03:33:01;;;;;;;7.32;5.65;;;;;;;;;;5025204;28;20273;-83
2022/02/13 03:35:27;;;;;;;5.82;5.13;;;;;;;;;;5022201;28;20181;-83
2022/02/13 03:37:53;;;;;;;7.13;5.40;;;;;;;;;;5044154;28;20182;-83
2022/02/13 03:40:19;;;;;;;6.35;5.75;;;;;;;;;;5037553;28;20193;-83
2022/02/13 03:42:45;;;;;;;6.40;5.38;;;;;;;;;;5027797;28;20187;-83
2022/02/13 03:45:12;;;;;;;11.98;5.85;;;;;;;;;;5012922;28;20213;-83
2022/02/13 03:47:39;;;;;;;8.23;5.43;;;;;;;;;;5023092;28;20640;-83
2022/02/13 03:50:05;;;;;;;8.18;6.60;;;;;;;;;;5025727;28;20179;-83
2022/02/13 03:52:31;;;;;;;6.82;5.93;;;;;;;;;;5008009;28;20189;-83
2022/02/13 03:54:59;;;;;;;9.20;5.32;;;;;;;;;;5034200;28;20270;-83
2022/02/13 03:57:25;;;;;;;7.43;6.30;;;;;;;;;;5027418;28;20670;-83
2022/02/13 03:59:51;;;;;;;7.15;5.25;;;;;;;;;;5036069;28;20198;-83
2022/02/13 04:02:17;;;;;;;8.15;5.57;;;;;;;;;;5005083;28;20850;-83
2022/02/13 04:04:43;;;;;;;9.88;6.40;;;;;;;;;;5041204;28;20207;-83
2022/02/13 04:07:09;;;;;;;9.10;4.97;;;;;;;;;;5023292;28;20214;-83
2022/02/13 04:09:36;;;;;;;8.35;5.68;;;;;;;;;;5027260;28;20190;-83
2022/02/13 04:12:02;;;;;;;5.97;5.38;;;;;;;;;;5022640;28;20206;-83
2022/02/13 04:14:28;;;;;;;12.82;6.47;;;;;;;;;;5037298;28;20271;-84
2022/02/13 04:16:54;;;;;;;10.40;6.28;;;;;;;;;;5009666;28;20217;-83
2022/02/13 04:19:20;;;;;;;6.38;5.40;;;;;;;;;;5010793;28;20191;-83
2022/02/13 04:21:46;;;;;;;8.13;6.30;;;;;;;;;;5016043;28;20189;-84
2022/02/13 04:24:12;;;;;;;10.30;6.75;;;;;;;;;;5035400;28;20278;-83
2022/02/13 04:26:38;;;;;;;9.55;5.80;;;;;;;;;;5042442;28;20217;-83
2022/02/13 04:29:04;;;;;;;6.60;5.57;;;;;;;;;;5024333;28;20183;-82
2022/02/13 04:31:30;;;;;;;7.47;6.15;;;;;;;;;;5016240;28;20174;-84
2022/02/13 04:33:56;;;;;;;12.15;6.90;;;;;;;;;;5021528;28;20190;-83
2022/02/13 04:36:22;;;;;;;7.78;5.05;;;;;;;;;;5038037;28;20252;-83
2022/02/13 04:38:48;;;;;;;7.70;5.50;;;;;;;;;;5037916;28;20248;-83
2022/02/13 04:41:14;;;;;;;7.13;5.80;;;;;;;;;;5023515;28;20191;-83
2022/02/13 04:43:40;;;;;;;7.18;5.85;;;;;;;;;;5026800;28;20186;-82
2022/02/13 04:46:06;;;;;;;8.55;6.38;;;;;;;;;;5038730;28;20214;-83
2022/02/13 04:48:32;;;;;;;9.90;5.82;;;;;;;;;;5014444;28;20211;-83
2022/02/13 04:50:58;;;;;;;8.48;5.95;;;;;;;;;;5016323;28;20209;-83
2022/02/13 04:53:24;;;;;;;9.57;6.03;;;;;;;;;;5004569;28;20179;-83
2022/02/13 04:55:50;;;;;;;7.07;5.35;;;;;;;;;;5019432;28;20235;-83
2022/02/13 04:58:18;;;;;;;5.88;5.15;;;;;;;;;;5025945;28;20193;-83
2022/02/13 05:00:45;;;;;;;9.25;5.63;;;;;;;;;;5008386;28;20171;-83
2022/02/13 05:03:11;;;;;;;8.15;5.45;;;;;;;;;;5009805;28;20213;-83
2022/02/13 05:05:37;;;;;;;7.05;5.95;;;;;;;;;;5021393;28;20238;-83
2022/02/13 05:08:03;;;;;;;8.07;6.25;;;;;;;;;;5011787;28;20178;-83
2022/02/13 05:10:29;;;;;;;6.97;5.53;;;;;;;;;;5021269;28;20657;-84
2022/02/13 05:12:55;;;;;;;6.13;5.50;;;;;;;;;;5017688;28;20214;-84
2022/02/13 05:15:21;;;;;;;10.48;5.60;;;;;;;;;;5047738;28;20186;-83
2022/02/13 05:17:47;;;;;;;6.55;5.07;;;;;;;;;;5007046;28;20194;-83
2022/02/13 05:20:13;;;;;;;6.93;5.70;;;;;;;;;;5035742;28;20191;-84
2022/02/13 05:22:40;;;;;;;7.25;5.93;;;;;;;;;;5022742;28;20638;-83
2022/02/13 05:25:06;;;;;;;5.03;4.60;;;;;;;;;;5016498;28;20207;-85
2022/02/13 05:27:32;;;;;;;7.65;5.70;;;;;;;;;;5016076;28;20217;-85
2022/02/13 05:29:58;;;;;;;8.55;5.40;;;;;;;;;;5007495;28;20179;-84
2022/02/13 05:32:24;;;;;;;6.60;5.80;;;;;;;;;;5046836;28;20181;-84
2022/02/13 05:34:50;;;;;;;6.75;5.40;;;;;;;;;;5010961;28;20190;-84
2022/02/13 05:37:17;;;;;;;10.02;5.65;;;;;;;;;;5036878;28;20219;-84
2022/02/13 05:39:43;;;;;;;7.72;5.10;;;;;;;;;;5034105;28;20237;-85
2022/02/13 05:42:09;;;;;;;9.50;6.15;;;;;;;;;;5013767;28;20183;-84
2022/02/13 05:44:35;;;;;;;7.45;5.28;;;;;;;;;;5008718;28;20248;-85
2022/02/13 05:47:01;;;;;;;5.78;4.75;;;;;;;;;;5038145;28;20178;-85
2022/02/13 05:49:27;;;;;;;7.25;5.65;;;;;;;;;;5025652;28;20190;-85
2022/02/13 05:51:54;;;;;;;7.28;5.75;;;;;;;;;;5031903;28;20628;-84
2022/02/13 05:54:20;;;;;;;5.95;5.35;;;;;;;;;;5025968;28;20203;-84
2022/02/13 05:56:46;;;;;;;8.70;5.25;;;;;;;;;;5010637;28;20181;-85
2022/02/13 05:59:12;;;;;;;7.40;4.63;;;;;;;;;;5050116;28;20518;-84
2022/02/13 06:01:38;;;;;;;6.28;5.25;;;;;;;;;;5025431;28;20221;-85
2022/02/13 06:04:04;;;;;;;7.47;5.30;;;;;;;;;;5040440;28;20187;-85
2022/02/13 06:06:30;;;;;;;8.95;5.57;;;;;;;;;;5039516;28;20209;-85
2022/02/13 06:08:56;;;;;;;6.15;4.80;;;;;;;;;;5013237;28;20186;-85
2022/02/13 06:11:22;;;;;;;8.48;5.30;;;;;;;;;;5039292;28;20183;-85
2022/02/13 06:13:48;;;;;;;8.50;6.10;;;;;;;;;;5048453;28;20178;-85
2022/02/13 06:16:14;;;;;;;5.13;4.68;;;;;;;;;;5024259;28;20209;-85
2022/02/13 06:18:40;;;;;;;7.05;5.47;;;;;;;;;;5040045;28;20208;-84
2022/02/13 06:21:06;;;;;;;8.93;6.00;;;;;;;;;;5022943;28;20186;-85
2022/02/13 06:23:32;;;;;;;7.95;5.50;;;;;;;;;;5007800;28;20258;-85
2022/02/13 06:25:59;;;;;;;6.50;5.30;;;;;;;;;;5013424;28;20262;-85
2022/02/13 06:28:25;;;;;;;7.63;5.82;;;;;;;;;;5014913;28;20255;-85
2022/02/13 06:30:52;;;;;;;8.20;6.43;;;;;;;;;;5024758;28;20178;-85
2022/02/13 06:33:18;;;;;;;7.15;5.55;;;;;;;;;;5039907;28;20189;-85
2022/02/13 06:35:44;;;;;;;6.63;5.78;;;;;;;;;;5039740;28;20190;-85
2022/02/13 06:38:13;;;;;;;7.47;5.60;;;;;;;;;;5011141;28;20226;-84
2022/02/13 06:40:40;;;;;;;7.10;4.90;;;;;;;;;;5050828;28;20285;-85
2022/02/13 06:43:06;;;;;;;5.45;4.68;;;;;;;;;;5030801;28;20197;-85
2022/02/13 06:45:32;;;;;;;8.63;6.13;;;;;;;;;;5031329;28;20215;-85
2022/02/13 06:47:58;;;;;;;6.80;5.07;;;;;;;;;;5040015;28;20178;-85
2022/02/13 06:50:24;;;;;;;6.82;5.70;;;;;;;;;;5021658;28;20195;-85
2022/02/13 06:52:50;;;;;;;7.47;6.00;;;;;;;;;;5023602;28;20183;-83
2022/02/13 06:55:16;;;;;;;7.75;5.82;;;;;;;;;;5017933;28;20211;-85
2022/02/13 06:57:46;;;;;;;7.82;5.50;;;;;;;;;;5031239;28;20189;-85
2022/02/13 07:00:12;;;;;;;9.60;6.28;;;;;;;;;;5032630;28;20194;-84
2022/02/13 07:02:38;;;;;;;7.38;4.78;;;;;;;;;;5024344;28;20190;-85
2022/02/13 07:05:05;;;;;;;6.15;5.25;;;;;;;;;;5044940;28;20206;-85
2022/02/13 07:07:31;;;;;;;9.13;6.05;;;;;;;;;;5023820;28;20190;-84
2022/02/13 07:09:57;;;;;;;8.95;5.60;;;;;;;;;;5024013;28;20556;-86
2022/02/13 07:12:23;;;;;;;8.23;5.00;;;;;;;;;;5027383;28;20202;-85
2022/02/13 07:14:49;;;;;;;6.47;5.20;;;;;;;;;;5026074;28;20190;-85
2022/02/13 07:17:15;;;;;;;8.93;5.18;;;;;;;;;;5044666;28;20181;-84
2022/02/13 07:19:41;;;;;;;6.70;5.15;;;;;;;;;;5020799;28;20211;-84
2022/02/13 07:22:07;;;;;;;5.25;4.65;;;;;;;;;;5021089;28;20310;-84
2022/02/13 07:24:34;;;;;;;7.20;5.65;;;;;;;;;;5030629;28;20213;-83
2022/02/13 07:27:01;;;;;;;6.05;5.45;;;;;;;;;;5039769;28;20174;-84
2022/02/13 07:29:27;;;;;;;7.47;5.32;;;;;;;;;;5026566;28;20293;-83
2022/02/13 07:31:53;;;;;;;5.63;4.93;;;;;;;;;;5044251;28;20195;-84
2022/02/13 07:34:19;;;;;;;11.02;6.05;;;;;;;;;;5013854;28;20206;-84
2022/02/13 07:36:51;;;;;;;8.35;6.25;;;;;;;;;;5022671;28;20205;-84
2022/02/13 07:39:17;;;;;;;7.50;4.80;;;;;;;;;;5035815;28;20222;-84
2022/02/13 07:41:43;;;;;;;6.70;6.00;;;;;;;;;;5025109;28;20623;-86
2022/02/13 07:44:09;;;;;;;8.52;5.93;;;;;;;;;;5037187;28;20205;-86
2022/02/13 07:46:35;;;;;;;7.82;6.30;;;;;;;;;;5025294;28;20232;-86
2022/02/13 07:49:05;;;;;;;7.35;6.18;;;;;;;;;;5023618;28;20190;-84
2022/02/13 07:51:32;;;;;;;7.80;6.28;;;;;;;;;;5027459;28;20288;-85
2022/02/13 07:53:58;;;;;;;9.85;6.50;;;;;;;;;;5053507;28;20205;-85
2022/02/13 07:56:24;;;;;;;9.45;7.00;;;;;;;;;;5023311;28;20258;-84
2022/02/13 07:58:50;;;;;;;6.38;5.78;;;;;;;;;;5044274;28;20191;-86
2022/02/13 08:01:19;;;;;;;12.68;6.43;;;;;;;;;;5039637;28;20662;-86
2022/02/13 08:03:45;;;;;;;8.85;6.15;;;;;;;;;;5034567;28;20585;-87
2022/02/13 08:06:19;;;;;;;7.18;4.75;;;;;;;;;;5031715;28;20210;-86
2022/02/13 08:08:45;;;;;;;8.00;6.25;;;;;;;;;;5022731;28;20273;-85
2022/02/13 08:11:12;;;;;;;7.55;4.90;;;;;;;;;;5032224;28;20166;-85
2022/02/13 08:13:38;;;;;;;6.13;4.60;;;;;;;;;;5019736;28;20187;-85
2022/02/13 08:16:04;;;;;;;7.85;5.70;;;;;;;;;;5030142;28;20201;-84
2022/02/13 08:18:30;;;;;;;6.43;5.40;;;;;;;;;;5027112;28;20195;-83
2022/02/13 08:20:56;;;;;;;6.03;4.82;;;;;;;;;;5030512;28;20187;-84
2022/02/13 08:23:23;;;;;;;5.07;4.35;;;;;;;;;;5022933;28;20531;-84
2022/02/13 08:25:49;;;;;;;7.22;5.10;;;;;;;;;;5018729;28;20206;-82
2022/02/13 08:28:16;;;;;;;5.53;4.32;;;;;;;;;;5032672;28;20254;-84
2022/02/13 08:30:42;;;;;;;5.43;4.25;;;;;;;;;;5031674;28;20206;-83
2022/02/13 08:33:08;;;;;;;4.93;3.95;;;;;;;;;;5035183;28;20525;-82
2022/02/13 08:35:34;;;;;;;5.40;4.43;;;;;;;;;;5018860;28;20190;-83
2022/02/13 08:38:01;;;;;;;8.07;5.35;;;;;;;;;;5051824;28;20230;-83
2022/02/13 08:40:27;;;;;;;7.38;4.20;;;;;;;;;;5035514;28;20262;-84
2022/02/13 08:42:54;;;;;;;4.88;4.28;;;;;;;;;;5028848;28;20190;-84
2022/02/13 08:45:20;;;;;;;6.80;5.22;;;;;;;;;;5032788;28;20207;-83
2022/02/13 08:47:46;;;;;;;7.40;4.55;;;;;;;;;;5048014;28;20193;-81
2022/02/13 08:50:12;;;;;;;8.02;5.57;;;;;;;;;;5036957;28;20162;-81
2022/02/13 08:52:38;;;;;;;8.75;5.60;;;;;;;;;;5020735;28;20610;-81
2022/02/13 08:55:04;;;;;;;6.18;5.43;;;;;;;;;;5017437;28;20229;-83
2022/02/13 08:57:30;;;;;;;4.65;4.20;;;;;;;;;;5033995;28;20186;-82
2022/02/13 08:59:56;;;;;;;8.45;5.10;;;;;;;;;;5047390;28;20260;-82
2022/02/13 09:02:22;;;;;;;7.80;4.47;;;;;;;;;;5049010;28;20202;-81
2022/02/13 09:04:48;;;;;;;8.60;5.63;;;;;;;;;;5013366;28;20210;-81
2022/02/13 09:07:14;;;;;;;7.22;6.10;;;;;;;;;;5007453;28;20496;-81
2022/02/13 09:09:43;;;;;;;7.80;6.15;;;;;;;;;;5022703;28;20290;-81
2022/02/13 09:12:09;;;;;;;9.30;5.82;;;;;;;;;;5040919;28;20214;-81
2022/02/13 09:14:36;;;;;;;9.85;5.68;;;;;;;;;;5052084;28;20171;-83
2022/02/13 09:17:02;;;;;;;5.97;5.38;;;;;;;;;;5011361;28;20175;-81
2022/02/13 09:19:28;;;;;;;7.93;5.35;;;;;;;;;;5033410;28;20190;-82
2022/02/13 09:21:54;;;;;;;6.97;5.72;;;;;;;;;;5030844;28;20607;-81
2022/02/13 09:24:21;;;;;;;8.68;5.82;;;;;;;;;;5041221;28;20714;-81
2022/02/13 09:26:48;;;;;;;5.47;4.55;;;;;;;;;;5033639;28;20228;-81
2022/02/13 09:29:13;;;;;;;9.77;5.55;;;;;;;;;;5008140;28;20607;-80
2022/02/13 09:31:40;;;;;;;6.50;5.25;;;;;;;;;;5026916;28;20233;-82
2022/02/13 09:34:06;;;;;;;8.73;5.25;;;;;;;;;;5029673;28;20187;-84
2022/02/13 09:36:32;;;;;;;6.55;4.47;;;;;;;;;;5018655;28;20719;-81
2022/02/13 09:38:58;;;;;;;7.82;5.20;;;;;;;;;;5013829;28;20221;-87
2022/02/13 09:41:24;;;;;;;6.30;5.70;;;;;;;;;;5058677;28;20236;-83
2022/02/13 09:43:51;;;;;;;9.73;6.00;;;;;;;;;;5044077;28;20187;-81
2022/02/13 09:46:17;;;;;;;6.88;5.68;;;;;;;;;;5020078;28;20198;-84
2022/02/13 09:48:44;;;;;;;8.95;5.72;;;;;;;;;;5034513;28;20197;-84
2022/02/13 09:51:11;;;;;;;8.55;5.15;;;;;;;;;;5021567;28;20203;-82
2022/02/13 09:53:37;;;;;;;8.73;5.28;;;;;;;;;;5040868;28;20182;-84
2022/02/13 09:56:04;;;;;;;7.03;5.95;;;;;;;;;;5041692;28;20594;-82
2022/02/13 09:58:30;;;;;;;6.78;5.90;;;;;;;;;;5033656;28;20185;-84
2022/02/13 10:00:59;;;;;;;6.00;5.40;;;;;;;;;;5030802;28;20281;-83
2022/02/13 10:03:42;;;;;;;9.40;5.85;;;;;;;;;;5038124;28;20198;-81
2022/02/13 10:06:17;;;;;;;7.60;4.68;;;;;;;;;;5043934;28;20206;-82
2022/02/13 10:08:56;;;;;;;8.27;5.30;;;;;;;;;;5073389;28;20200;-86
2022/02/13 10:11:25;;;;;;;8.93;6.15;;;;;;;;;;5054830;28;20166;-83
2022/02/13 10:13:51;;;;;;;10.40;5.95;;;;;;;;;;5013383;28;20178;-81
2022/02/13 10:16:18;;;;;;;7.20;5.70;;;;;;;;;;5031179;28;20229;-81
2022/02/13 10:18:51;;;;;;;7.65;5.50;;;;;;;;;;5021896;28;20198;-82
2022/02/13 10:21:30;;;;;;;9.20;5.85;;;;;;;;;;5015979;28;20191;-84
2022/02/13 10:24:11;;;;;;;9.82;5.18;;;;;;;;;;5012470;28;20193;-83
2022/02/13 10:26:37;;;;;;;7.88;5.47;;;;;;;;;;5023808;28;20245;-82
2022/02/13 10:29:03;;;;;;;9.93;5.32;;;;;;;;;;5017932;28;20167;-82
2022/02/13 10:31:33;;;;;;;10.75;6.18;;;;;;;;;;5016380;28;20267;-85
2022/02/13 10:34:01;;;;;;;12.80;5.38;;;;;;;;;;5029488;28;20222;-83
2022/02/13 10:36:27;;;;;;;10.60;5.10;;;;;;;;;;5020881;28;20193;-85
2022/02/13 10:38:53;;;;;;;7.50;6.10;;;;;;;;;;5014974;28;20286;-82
2022/02/13 10:41:20;;;;;;;7.22;6.53;;;;;;;;;;5037645;28;20270;-81
2022/02/13 10:44:08;;;;;;;6.75;5.68;;;;;;;;;;5044898;28;20270;-81
2022/02/13 10:46:38;;;;;;;7.55;5.72;;;;;;;;;;5027890;28;20238;-81
2022/02/13 10:49:05;;;;;;;10.20;5.65;;;;;;;;;;5034866;28;20202;-83
2022/02/13 10:51:32;;;;;;;9.15;5.95;;;;;;;;;;5028473;28;20325;-82
2022/02/13 10:53:59;;;;;;;7.70;5.88;;;;;;;;;;5010127;28;20186;-82
2022/02/13 10:56:25;;;;;;;8.45;5.80;;;;;;;;;;5023921;28;20190;-83
2022/02/13 10:58:55;;;;;;;8.63;5.80;;;;;;;;;;5023548;28;20233;-85
2022/02/13 11:01:22;;;;;;;9.80;5.88;;;;;;;;;;5024442;28;20640;-85
2022/02/13 11:03:48;;;;;;;7.65;5.70;;;;;;;;;;5028083;28;20187;-83
2022/02/13 11:06:16;;;;;;;8.05;5.85;;;;;;;;;;5024586;28;20728;-84
2022/02/13 11:08:47;;;;;;;10.57;5.63;;;;;;;;;;5007836;28;20181;-84
2022/02/13 11:11:16;;;;;;;9.10;5.68;;;;;;;;;;5020700;28;20253;-82
2022/02/13 11:13:44;;;;;;;9.73;6.30;;;;;;;;;;5013409;28;20178;-83
2022/02/13 11:16:30;;;;;;;7.07;6.38;;;;;;;;;;5011680;28;20191;-85
2022/02/13 11:19:01;;;;;;;8.88;6.40;;;;;;;;;;5008912;28;20284;-84
2022/02/13 11:21:30;;;;;;;11.77;6.43;;;;;;;;;;5014023;28;20190;-84
2022/02/13 11:23:56;;;;;;;7.57;6.70;;;;;;;;;;5026028;28;20178;-85
2022/02/13 11:26:34;;;;;;;8.30;5.60;;;;;;;;;;5023593;28;20213;-86
2022/02/13 11:29:01;;;;;;;8.18;6.35;;;;;;;;;;5039229;28;20183;-84
2022/02/13 11:31:53;;;;;;;10.38;5.78;;;;;;;;;;5023609;28;20175;-83
2022/02/13 11:34:22;;;;;;;9.90;6.15;;;;;;;;;;5027169;28;20219;-83
2022/02/13 11:36:53;;;;;;;10.70;7.78;;;;;;;;;;5037480;28;20183;-83
2022/02/13 11:39:31;;;;;;;8.23;6.20;;;;;;;;;;5011595;28;20220;-82
2022/02/13 11:42:02;;;;;;;7.88;5.60;;;;;;;;;;5049653;28;20209;-83
2022/02/13 11:44:35;;;;;;;7.10;5.07;;;;;;;;;;5025342;28;20242;-82
2022/02/13 11:47:02;;;;;;;12.00;6.00;;;;;;;;;;5051416;28;20244;-82
2022/02/13 11:49:28;;;;;;;7.13;5.50;;;;;;;;;;5042977;28;20712;-82
2022/02/13 11:51:54;;;;;;;9.65;6.30;;;;;;;;;;5044723;28;20186;-87
2022/02/13 11:54:38;;;;;;;10.30;5.90;;;;;;;;;;5022692;28;20241;-86
2022/02/13 11:57:08;;;;;;;9.43;5.85;;;;;;;;;;5042311;28;20938;-82
2022/02/13 11:59:53;;;;;;;6.90;5.32;;;;;;;;;;5013281;28;21005;-84
2022/02/13 12:02:22;;;;;;;8.35;6.60;;;;;;;;;;5036150;28;20701;-87
2022/02/13 12:05:04;;;;;;;9.45;6.47;;;;;;;;;;5012123;28;20200;-84
2022/02/13 12:07:36;;;;;;;8.07;6.13;;;;;;;;;;5019005;28;20191;-87
2022/02/13 12:10:03;;;;;;;9.13;5.63;;;;;;;;;;5012301;28;20179;-85
2022/02/13 12:12:29;;;;;;;6.05;5.18;;;;;;;;;;5022996;28;20196;-87
2022/02/13 12:14:55;;;;;;;6.80;4.75;;;;;;;;;;5030490;28;20178;-87
2022/02/13 12:17:25;;;;;;;8.82;5.75;;;;;;;;;;5022956;28;20281;-88
2022/02/13 12:20:00;;;;;;;5.70;5.10;;;;;;;;;;5043234;28;20219;-89
2022/02/13 12:22:27;;;;;;;11.27;5.28;;;;;;;;;;5044943;28;20220;-86
2022/02/13 12:24:55;;;;;;;11.00;5.97;;;;;;;;;;5012194;28;20262;-83
2022/02/13 12:27:24;;;;;;;11.02;6.35;;;;;;;;;;5010816;28;20198;-87
2022/02/13 12:29:51;;;;;;;9.05;4.95;;;;;;;;;;5023344;28;20193;-84
2022/02/13 12:32:17;;;;;;;7.57;5.00;;;;;;;;;;5009743;28;20178;-84
2022/02/13 12:34:57;;;;;;;8.27;5.53;;;;;;;;;;5042976;28;20194;-83
2022/02/13 12:37:42;;;;;;;10.98;5.65;;;;;;;;;;5045975;28;20186;-87
2022/02/13 12:40:09;;;;;;;8.65;5.70;;;;;;;;;;5018076;28;20203;-89
2022/02/13 12:42:37;;;;;;;7.30;5.35;;;;;;;;;;5044313;28;20186;-83
2022/02/13 12:45:10;;;;;;;6.80;4.93;;;;;;;;;;5028500;28;20210;-86
2022/02/13 12:47:37;;;;;;;8.43;5.00;;;;;;;;;;5025282;28;20183;-83
2022/02/13 12:50:05;;;;;;;5.53;5.03;;;;;;;;;;5044420;28;20571;-82
2022/02/13 12:52:31;;;;;;;9.98;5.53;;;;;;;;;;5026004;28;20631;-85
2022/02/13 12:54:58;;;;;;;8.05;5.32;;;;;;;;;;5018057;28;20182;-84
2022/02/13 12:57:27;;;;;;;7.18;5.40;;;;;;;;;;5034126;28;20194;-82
2022/02/13 12:59:53;;;;;;;9.20;4.88;;;;;;;;;;5052476;28;20259;-84
2022/02/13 13:02:20;;;;;;;8.88;5.13;;;;;;;;;;5021488;28;20186;-82
2022/02/13 13:04:46;;;;;;;8.07;5.50;;;;;;;;;;5037162;28;20202;-87
2022/02/13 13:07:20;;;;;;;11.52;5.18;;;;;;;;;;5037184;28;20179;-84
2022/02/13 13:09:46;;;;;;;9.23;5.50;;;;;;;;;;5014671;28;20192;-86
2022/02/13 13:12:13;;;;;;;7.82;5.40;;;;;;;;;;5035915;28;20240;-85
2022/02/13 13:14:39;;;;;;;11.15;5.72;;;;;;;;;;5022268;28;20213;-86
2022/02/13 13:17:09;;;;;;;8.68;5.30;;;;;;;;;;5024372;28;20171;-87
2022/02/13 13:19:38;;;;;;;7.38;5.43;;;;;;;;;;5027761;28;20189;-85
2022/02/13 13:22:21;;;;;;;10.98;5.35;;;;;;;;;;5027108;28;20552;-86
2022/02/13 13:24:48;;;;;;;6.72;5.00;;;;;;;;;;5022036;28;20310;-84
2022/02/13 13:27:18;;;;;;;9.27;6.05;;;;;;;;;;5009749;28;20624;-86
2022/02/13 13:29:45;;;;;;;12.63;5.65;;;;;;;;;;5007200;28;20186;-86
2022/02/13 13:32:18;;;;;;;8.73;5.57;;;;;;;;;;5035802;28;20233;-83
2022/02/13 13:34:44;;;;;;;6.80;5.32;;;;;;;;;;5024411;28;20200;-87
2022/02/13 13:37:43;;;;;;;10.27;6.37;;;;;;;;;;5025587;28;20195;-82
2022/02/13 13:40:35;;;;;;;8.57;6.22;;;;;;;;;;5036529;28;20461;-86
2022/02/13 13:43:15;;;;;;;9.77;5.43;;;;;;;;;;5041305;28;20192;-82
2022/02/13 13:45:45;;;;;;;9.95;5.28;;;;;;;;;;5013396;28;20235;-82
2022/02/13 13:48:12;;;;;;;6.28;4.57;;;;;;;;;;5021631;28;20217;-88
2022/02/13 13:50:39;;;;;;;6.82;6.13;;;;;;;;;;5006358;28;20202;-81
2022/02/13 13:53:06;;;;;;;9.00;5.25;;;;;;;;;;5013235;28;20178;-81
2022/02/13 13:55:32;;;;;;;10.95;5.95;;;;;;;;;;5021418;28;20194;-85
2022/02/13 13:57:58;;;;;;;9.30;5.60;;;;;;;;;;5027346;28;20206;-84
2022/02/13 14:00:25;;;;;;;9.65;6.45;;;;;;;;;;5020965;28;20761;-83
2022/02/13 14:02:59;;;;;;;9.13;5.93;;;;;;;;;;5049784;28;20179;-84
2022/02/13 14:05:25;;;;;;;7.97;5.32;;;;;;;;;;5025081;28;20696;-81
2022/02/13 14:07:52;;;;;;;9.57;5.10;;;;;;;;;;5020461;28;20176;-81
2022/02/13 14:10:19;;;;;;;10.15;5.80;;;;;;;;;;5030148;28;20667;-82
2022/02/13 14:12:45;;;;;;;8.13;5.72;;;;;;;;;;5029429;28;20179;-88
2022/02/13 14:15:11;;;;;;;7.40;5.88;;;;;;;;;;5013142;28;20189;-83
2022/02/13 14:17:37;;;;;;;13.15;7.05;;;;;;;;;;5020298;28;20187;-87
2022/02/13 14:20:04;;;;;;;10.07;6.93;;;;;;;;;;5013287;28;20242;-85
2022/02/13 14:22:30;;;;;;;8.52;5.80;;;;;;;;;;5029429;28;20191;-86
2022/02/13 14:24:56;;;;;;;8.60;5.90;;;;;;;;;;5029187;28;20293;-86
2022/02/13 14:27:22;;;;;;;9.10;5.83;;;;;;;;;;5025315;28;20442;-86
2022/02/13 14:29:48;;;;;;;8.40;6.70;;;;;;;;;;5024835;28;20450;-85
2022/02/13 14:32:14;;;;;;;10.70;5.90;;;;;;;;;;5026345;28;20183;-86
2022/02/13 14:34:39;;;;;;;7.50;5.28;;;;;;;;;;5024528;28;20456;-83
2022/02/13 14:37:07;;;;;;;9.57;5.40;;;;;;;;;;5019090;28;20186;-85
2022/02/13 14:39:33;;;;;;;7.30;5.80;;;;;;;;;;5028850;28;20484;-83
2022/02/13 14:41:59;;;;;;;9.60;5.93;;;;;;;;;;5012812;28;20436;-85